sensor_id;sensor_type;location;lat;lon;timestamp;P1;durP1;ratioP1;P2;durP2;ratioP2
48241;SDS011;34041;51.812;4.622;2023-04-24T00:01:11;2.40;;;1.30;;
48241;SDS011;34041;51.812;4.622;2023-04-24T00:04:12;1.98;;;0.95;;
48241;SDS011;34041;51.812;4.622;2023-04-24T00:07:14;1.67;;;0.85;;
48241;SDS011;34041;51.812;4.622;2023-04-24T00:10:16;2.15;;;0.80;;
48241;SDS011;34041;51.812;4.622;2023-04-24T00:13:17;2.27;;;1.47;;
48241;SDS011;34041;51.812;4.622;2023-04-24T00:16:17;2.10;;;0.67;;
48241;SDS011;34041;51.812;4.622;2023-04-24T00:19:17;1.37;;;0.83;;
48241;SDS011;34041;51.812;4.622;2023-04-24T00:22:21;1.92;;;0.95;;
48241;SDS011;34041;51.812;4.622;2023-04-24T00:25:21;2.17;;;1.10;;
48241;SDS011;34041;51.812;4.622;2023-04-24T00:28:21;2.83;;;1.10;;
48241;SDS011;34041;51.812;4.622;2023-04-24T00:31:21;2.70;;;1.23;;
48241;SDS011;34041;51.812;4.622;2023-04-24T00:34:22;1.83;;;0.82;;
48241;SDS011;34041;51.812;4.622;2023-04-24T00:37:22;1.92;;;0.80;;
48241;SDS011;34041;51.812;4.622;2023-04-24T00:40:22;3.50;;;0.83;;
48241;SDS011;34041;51.812;4.622;2023-04-24T00:43:22;6.40;;;1.00;;
48241;SDS011;34041;51.812;4.622;2023-04-24T00:46:23;2.33;;;1.02;;
48241;SDS011;34041;51.812;4.622;2023-04-24T00:49:23;2.55;;;0.80;;
48241;SDS011;34041;51.812;4.622;2023-04-24T00:52:23;1.63;;;1.13;;
48241;SDS011;34041;51.812;4.622;2023-04-24T00:55:24;1.20;;;0.70;;
48241;SDS011;34041;51.812;4.622;2023-04-24T00:58:24;1.88;;;1.02;;
48241;SDS011;34041;51.812;4.622;2023-04-24T01:01:25;1.85;;;0.98;;
48241;SDS011;34041;51.812;4.622;2023-04-24T01:04:25;2.07;;;0.83;;
48241;SDS011;34041;51.812;4.622;2023-04-24T01:07:26;1.85;;;0.90;;
48241;SDS011;34041;51.812;4.622;2023-04-24T01:10:26;2.10;;;1.40;;
48241;SDS011;34041;51.812;4.622;2023-04-24T01:13:27;1.58;;;1.05;;
48241;SDS011;34041;51.812;4.622;2023-04-24T01:16:27;1.90;;;0.90;;
48241;SDS011;34041;51.812;4.622;2023-04-24T01:19:27;3.22;;;1.20;;
48241;SDS011;34041;51.812;4.622;2023-04-24T01:22:28;1.80;;;1.02;;
48241;SDS011;34041;51.812;4.622;2023-04-24T01:25:28;1.83;;;1.00;;
48241;SDS011;34041;51.812;4.622;2023-04-24T01:28:29;3.42;;;1.00;;
48241;SDS011;34041;51.812;4.622;2023-04-24T01:31:29;2.65;;;1.00;;
48241;SDS011;34041;51.812;4.622;2023-04-24T01:34:30;2.45;;;1.23;;
48241;SDS011;34041;51.812;4.622;2023-04-24T01:37:30;1.35;;;0.88;;
48241;SDS011;34041;51.812;4.622;2023-04-24T01:40:32;2.42;;;1.42;;
48241;SDS011;34041;51.812;4.622;2023-04-24T01:43:32;2.30;;;0.90;;
48241;SDS011;34041;51.812;4.622;2023-04-24T01:46:32;1.47;;;1.10;;
48241;SDS011;34041;51.812;4.622;2023-04-24T01:49:34;2.42;;;1.00;;
48241;SDS011;34041;51.812;4.622;2023-04-24T01:52:35;1.70;;;0.88;;
48241;SDS011;34041;51.812;4.622;2023-04-24T01:55:36;2.22;;;1.15;;
48241;SDS011;34041;51.812;4.622;2023-04-24T01:58:36;1.87;;;1.03;;
48241;SDS011;34041;51.812;4.622;2023-04-24T02:01:36;2.23;;;1.20;;
48241;SDS011;34041;51.812;4.622;2023-04-24T02:04:37;2.42;;;1.58;;
48241;SDS011;34041;51.812;4.622;2023-04-24T02:07:37;3.13;;;1.42;;
48241;SDS011;34041;51.812;4.622;2023-04-24T02:10:37;2.47;;;1.40;;
48241;SDS011;34041;51.812;4.622;2023-04-24T02:13:37;2.43;;;1.53;;
48241;SDS011;34041;51.812;4.622;2023-04-24T02:16:38;1.80;;;1.10;;
48241;SDS011;34041;51.812;4.622;2023-04-24T02:19:38;3.13;;;1.30;;
48241;SDS011;34041;51.812;4.622;2023-04-24T02:22:39;1.70;;;1.10;;
48241;SDS011;34041;51.812;4.622;2023-04-24T02:25:39;2.80;;;1.50;;
48241;SDS011;34041;51.812;4.622;2023-04-24T02:28:39;2.13;;;1.35;;
48241;SDS011;34041;51.812;4.622;2023-04-24T02:31:39;2.63;;;1.30;;
48241;SDS011;34041;51.812;4.622;2023-04-24T02:34:40;2.20;;;1.40;;
48241;SDS011;34041;51.812;4.622;2023-04-24T02:37:40;2.92;;;1.60;;
48241;SDS011;34041;51.812;4.622;2023-04-24T02:40:40;2.33;;;1.40;;
48241;SDS011;34041;51.812;4.622;2023-04-24T02:43:41;2.75;;;1.55;;
48241;SDS011;34041;51.812;4.622;2023-04-24T02:46:41;2.92;;;1.63;;
48241;SDS011;34041;51.812;4.622;2023-04-24T02:49:41;2.47;;;1.48;;
48241;SDS011;34041;51.812;4.622;2023-04-24T02:52:42;2.93;;;1.53;;
48241;SDS011;34041;51.812;4.622;2023-04-24T02:55:42;2.65;;;1.80;;
48241;SDS011;34041;51.812;4.622;2023-04-24T02:58:42;2.33;;;1.30;;
48241;SDS011;34041;51.812;4.622;2023-04-24T03:01:43;4.28;;;1.52;;
48241;SDS011;34041;51.812;4.622;2023-04-24T03:04:43;2.53;;;1.27;;
48241;SDS011;34041;51.812;4.622;2023-04-24T03:07:43;2.77;;;1.70;;
48241;SDS011;34041;51.812;4.622;2023-04-24T03:10:44;2.85;;;1.50;;
48241;SDS011;34041;51.812;4.622;2023-04-24T03:13:44;2.30;;;1.38;;
48241;SDS011;34041;51.812;4.622;2023-04-24T03:16:44;2.53;;;1.30;;
48241;SDS011;34041;51.812;4.622;2023-04-24T03:19:44;2.25;;;1.40;;
48241;SDS011;34041;51.812;4.622;2023-04-24T03:22:45;3.20;;;1.67;;
48241;SDS011;34041;51.812;4.622;2023-04-24T03:25:45;2.63;;;1.27;;
48241;SDS011;34041;51.812;4.622;2023-04-24T03:28:45;3.40;;;1.70;;
48241;SDS011;34041;51.812;4.622;2023-04-24T03:31:45;1.97;;;1.23;;
48241;SDS011;34041;51.812;4.622;2023-04-24T03:34:46;3.03;;;1.40;;
48241;SDS011;34041;51.812;4.622;2023-04-24T03:37:46;2.40;;;1.43;;
48241;SDS011;34041;51.812;4.622;2023-04-24T03:40:46;2.07;;;1.20;;
48241;SDS011;34041;51.812;4.622;2023-04-24T03:43:46;2.10;;;1.30;;
48241;SDS011;34041;51.812;4.622;2023-04-24T03:46:47;2.47;;;1.40;;
48241;SDS011;34041;51.812;4.622;2023-04-24T03:49:47;2.90;;;1.47;;
48241;SDS011;34041;51.812;4.622;2023-04-24T03:52:47;3.30;;;1.97;;
48241;SDS011;34041;51.812;4.622;2023-04-24T03:55:47;2.77;;;1.37;;
48241;SDS011;34041;51.812;4.622;2023-04-24T03:58:47;2.33;;;1.50;;
48241;SDS011;34041;51.812;4.622;2023-04-24T04:01:48;2.53;;;1.13;;
48241;SDS011;34041;51.812;4.622;2023-04-24T04:04:48;3.40;;;1.50;;
48241;SDS011;34041;51.812;4.622;2023-04-24T04:07:48;2.53;;;1.80;;
48241;SDS011;34041;51.812;4.622;2023-04-24T04:10:48;2.03;;;1.23;;
48241;SDS011;34041;51.812;4.622;2023-04-24T04:13:49;2.40;;;1.20;;
48241;SDS011;34041;51.812;4.622;2023-04-24T04:16:49;2.63;;;1.42;;
48241;SDS011;34041;51.812;4.622;2023-04-24T04:19:49;2.40;;;1.25;;
48241;SDS011;34041;51.812;4.622;2023-04-24T04:22:50;2.25;;;1.38;;
48241;SDS011;34041;51.812;4.622;2023-04-24T04:25:50;2.30;;;1.30;;
48241;SDS011;34041;51.812;4.622;2023-04-24T04:28:52;2.10;;;1.52;;
48241;SDS011;34041;51.812;4.622;2023-04-24T04:31:52;2.60;;;1.40;;
48241;SDS011;34041;51.812;4.622;2023-04-24T04:34:52;2.25;;;1.33;;
48241;SDS011;34041;51.812;4.622;2023-04-24T04:37:53;3.83;;;1.30;;
48241;SDS011;34041;51.812;4.622;2023-04-24T04:40:53;2.43;;;1.43;;
48241;SDS011;34041;51.812;4.622;2023-04-24T04:43:53;2.47;;;1.30;;
48241;SDS011;34041;51.812;4.622;2023-04-24T04:46:53;2.10;;;0.97;;
48241;SDS011;34041;51.812;4.622;2023-04-24T04:49:56;1.67;;;1.00;;
48241;SDS011;34041;51.812;4.622;2023-04-24T04:52:56;2.22;;;1.35;;
48241;SDS011;34041;51.812;4.622;2023-04-24T04:55:57;2.17;;;1.47;;
48241;SDS011;34041;51.812;4.622;2023-04-24T04:58:57;3.80;;;1.50;;
48241;SDS011;34041;51.812;4.622;2023-04-24T05:01:58;2.03;;;1.25;;
48241;SDS011;34041;51.812;4.622;2023-04-24T05:04:59;2.30;;;1.35;;
48241;SDS011;34041;51.812;4.622;2023-04-24T05:08:00;1.70;;;1.10;;
48241;SDS011;34041;51.812;4.622;2023-04-24T05:11:00;1.60;;;1.10;;
48241;SDS011;34041;51.812;4.622;2023-04-24T05:14:00;3.88;;;1.00;;
48241;SDS011;34041;51.812;4.622;2023-04-24T05:17:01;1.95;;;1.00;;
48241;SDS011;34041;51.812;4.622;2023-04-24T05:20:01;3.45;;;1.52;;
48241;SDS011;34041;51.812;4.622;2023-04-24T05:23:03;1.77;;;1.00;;
48241;SDS011;34041;51.812;4.622;2023-04-24T05:26:03;1.70;;;1.00;;
48241;SDS011;34041;51.812;4.622;2023-04-24T05:29:04;1.85;;;1.05;;
48241;SDS011;34041;51.812;4.622;2023-04-24T05:32:04;1.53;;;1.00;;
48241;SDS011;34041;51.812;4.622;2023-04-24T05:35:04;2.47;;;1.27;;
48241;SDS011;34041;51.812;4.622;2023-04-24T05:38:04;2.13;;;1.13;;
48241;SDS011;34041;51.812;4.622;2023-04-24T05:41:05;1.83;;;1.13;;
48241;SDS011;34041;51.812;4.622;2023-04-24T05:44:05;2.38;;;1.58;;
48241;SDS011;34041;51.812;4.622;2023-04-24T05:47:05;2.80;;;1.40;;
48241;SDS011;34041;51.812;4.622;2023-04-24T05:50:06;3.10;;;1.40;;
48241;SDS011;34041;51.812;4.622;2023-04-24T05:53:06;2.63;;;1.40;;
48241;SDS011;34041;51.812;4.622;2023-04-24T05:56:07;2.15;;;1.35;;
48241;SDS011;34041;51.812;4.622;2023-04-24T05:59:07;3.43;;;1.77;;
48241;SDS011;34041;51.812;4.622;2023-04-24T06:02:08;5.25;;;2.28;;
48241;SDS011;34041;51.812;4.622;2023-04-24T06:05:08;3.80;;;2.13;;
48241;SDS011;34041;51.812;4.622;2023-04-24T06:08:09;3.40;;;1.80;;
48241;SDS011;34041;51.812;4.622;2023-04-24T06:11:09;4.75;;;2.58;;
48241;SDS011;34041;51.812;4.622;2023-04-24T06:14:10;4.60;;;2.05;;
48241;SDS011;34041;51.812;4.622;2023-04-24T06:17:10;4.37;;;1.90;;
48241;SDS011;34041;51.812;4.622;2023-04-24T06:20:10;3.87;;;2.50;;
48241;SDS011;34041;51.812;4.622;2023-04-24T06:23:11;3.17;;;2.25;;
48241;SDS011;34041;51.812;4.622;2023-04-24T06:26:11;4.37;;;2.43;;
48241;SDS011;34041;51.812;4.622;2023-04-24T06:29:11;3.72;;;1.95;;
48241;SDS011;34041;51.812;4.622;2023-04-24T06:32:12;4.65;;;2.35;;
48241;SDS011;34041;51.812;4.622;2023-04-24T06:35:12;3.13;;;1.75;;
48241;SDS011;34041;51.812;4.622;2023-04-24T06:38:12;4.47;;;2.63;;
48241;SDS011;34041;51.812;4.622;2023-04-24T06:41:13;3.60;;;2.35;;
48241;SDS011;34041;51.812;4.622;2023-04-24T06:44:13;4.00;;;2.27;;
48241;SDS011;34041;51.812;4.622;2023-04-24T06:47:14;5.07;;;2.78;;
48241;SDS011;34041;51.812;4.622;2023-04-24T06:50:15;4.72;;;2.40;;
48241;SDS011;34041;51.812;4.622;2023-04-24T06:53:15;4.70;;;2.40;;
48241;SDS011;34041;51.812;4.622;2023-04-24T06:56:15;4.40;;;2.00;;
48241;SDS011;34041;51.812;4.622;2023-04-24T06:59:16;4.33;;;2.43;;
48241;SDS011;34041;51.812;4.622;2023-04-24T07:02:16;5.20;;;2.40;;
48241;SDS011;34041;51.812;4.622;2023-04-24T07:05:16;5.93;;;2.33;;
48241;SDS011;34041;51.812;4.622;2023-04-24T07:08:19;3.45;;;2.20;;
48241;SDS011;34041;51.812;4.622;2023-04-24T07:11:21;6.22;;;2.67;;
48241;SDS011;34041;51.812;4.622;2023-04-24T07:14:22;6.03;;;2.13;;
48241;SDS011;34041;51.812;4.622;2023-04-24T07:17:22;4.73;;;2.60;;
48241;SDS011;34041;51.812;4.622;2023-04-24T07:20:22;5.70;;;2.97;;
48241;SDS011;34041;51.812;4.622;2023-04-24T07:23:22;7.07;;;2.72;;
48241;SDS011;34041;51.812;4.622;2023-04-24T07:26:23;4.47;;;2.17;;
48241;SDS011;34041;51.812;4.622;2023-04-24T07:29:23;7.37;;;3.87;;
48241;SDS011;34041;51.812;4.622;2023-04-24T07:32:23;5.97;;;2.50;;
48241;SDS011;34041;51.812;4.622;2023-04-24T07:35:24;5.75;;;2.35;;
48241;SDS011;34041;51.812;4.622;2023-04-24T07:38:25;5.43;;;2.53;;
48241;SDS011;34041;51.812;4.622;2023-04-24T07:41:25;7.72;;;2.90;;
48241;SDS011;34041;51.812;4.622;2023-04-24T07:44:27;4.40;;;2.70;;
48241;SDS011;34041;51.812;4.622;2023-04-24T07:47:27;5.30;;;2.10;;
48241;SDS011;34041;51.812;4.622;2023-04-24T07:50:28;5.97;;;2.35;;
48241;SDS011;34041;51.812;4.622;2023-04-24T07:53:28;5.40;;;2.13;;
48241;SDS011;34041;51.812;4.622;2023-04-24T07:56:28;5.13;;;2.10;;
48241;SDS011;34041;51.812;4.622;2023-04-24T07:59:31;7.38;;;2.65;;
48241;SDS011;34041;51.812;4.622;2023-04-24T08:02:31;4.50;;;2.20;;
48241;SDS011;34041;51.812;4.622;2023-04-24T08:05:31;7.57;;;2.35;;
48241;SDS011;34041;51.812;4.622;2023-04-24T08:08:31;4.83;;;2.37;;
48241;SDS011;34041;51.812;4.622;2023-04-24T08:11:32;5.72;;;2.63;;
48241;SDS011;34041;51.812;4.622;2023-04-24T08:14:32;5.03;;;1.95;;
48241;SDS011;34041;51.812;4.622;2023-04-24T08:17:33;7.07;;;2.33;;
48241;SDS011;34041;51.812;4.622;2023-04-24T08:20:35;4.43;;;1.88;;
48241;SDS011;34041;51.812;4.622;2023-04-24T08:23:36;5.22;;;2.35;;
48241;SDS011;34041;51.812;4.622;2023-04-24T08:26:36;5.80;;;2.13;;
48241;SDS011;34041;51.812;4.622;2023-04-24T08:29:37;4.05;;;2.20;;
48241;SDS011;34041;51.812;4.622;2023-04-24T08:32:37;5.73;;;2.37;;
48241;SDS011;34041;51.812;4.622;2023-04-24T08:35:37;5.77;;;2.17;;
48241;SDS011;34041;51.812;4.622;2023-04-24T08:38:37;5.55;;;1.90;;
48241;SDS011;34041;51.812;4.622;2023-04-24T08:41:38;6.45;;;2.20;;
48241;SDS011;34041;51.812;4.622;2023-04-24T08:44:42;6.18;;;2.70;;
48241;SDS011;34041;51.812;4.622;2023-04-24T08:47:43;6.43;;;2.88;;
48241;SDS011;34041;51.812;4.622;2023-04-24T08:50:44;5.80;;;1.77;;
48241;SDS011;34041;51.812;4.622;2023-04-24T08:53:45;6.18;;;1.80;;
48241;SDS011;34041;51.812;4.622;2023-04-24T08:56:45;5.25;;;1.65;;
48241;SDS011;34041;51.812;4.622;2023-04-24T08:59:47;4.10;;;2.75;;
48241;SDS011;34041;51.812;4.622;2023-04-24T09:02:51;4.43;;;1.90;;
48241;SDS011;34041;51.812;4.622;2023-04-24T09:05:52;3.97;;;2.03;;
48241;SDS011;34041;51.812;4.622;2023-04-24T09:08:52;4.75;;;1.63;;
48241;SDS011;34041;51.812;4.622;2023-04-24T09:11:54;6.43;;;2.35;;
48241;SDS011;34041;51.812;4.622;2023-04-24T09:14:55;3.83;;;2.15;;
48241;SDS011;34041;51.812;4.622;2023-04-24T09:17:56;3.72;;;1.67;;
48241;SDS011;34041;51.812;4.622;2023-04-24T09:21:01;4.00;;;1.63;;
48241;SDS011;34041;51.812;4.622;2023-04-24T09:27:02;5.20;;;1.85;;
48241;SDS011;34041;51.812;4.622;2023-04-24T09:30:02;4.63;;;2.03;;
48241;SDS011;34041;51.812;4.622;2023-04-24T09:33:09;6.07;;;2.55;;
48241;SDS011;34041;51.812;4.622;2023-04-24T09:36:10;4.95;;;1.80;;
48241;SDS011;34041;51.812;4.622;2023-04-24T09:39:11;3.07;;;1.67;;
48241;SDS011;34041;51.812;4.622;2023-04-24T09:42:11;3.47;;;1.95;;
48241;SDS011;34041;51.812;4.622;2023-04-24T09:45:12;3.70;;;1.57;;
48241;SDS011;34041;51.812;4.622;2023-04-24T09:48:12;4.07;;;1.65;;
48241;SDS011;34041;51.812;4.622;2023-04-24T09:51:12;3.50;;;1.53;;
48241;SDS011;34041;51.812;4.622;2023-04-24T09:54:14;9.65;;;2.92;;
48241;SDS011;34041;51.812;4.622;2023-04-24T09:57:15;8.85;;;2.35;;
48241;SDS011;34041;51.812;4.622;2023-04-24T10:00:22;6.53;;;2.40;;
48241;SDS011;34041;51.812;4.622;2023-04-24T10:03:26;4.60;;;2.83;;
48241;SDS011;34041;51.812;4.622;2023-04-24T10:06:31;6.25;;;2.15;;
48241;SDS011;34041;51.812;4.622;2023-04-24T10:09:31;6.85;;;2.25;;
48241;SDS011;34041;51.812;4.622;2023-04-24T10:12:32;11.15;;;2.33;;
48241;SDS011;34041;51.812;4.622;2023-04-24T10:15:32;7.65;;;2.28;;
48241;SDS011;34041;51.812;4.622;2023-04-24T10:18:33;7.55;;;2.47;;
48241;SDS011;34041;51.812;4.622;2023-04-24T10:21:34;6.22;;;2.00;;
48241;SDS011;34041;51.812;4.622;2023-04-24T10:24:34;6.55;;;2.00;;
48241;SDS011;34041;51.812;4.622;2023-04-24T10:27:37;6.45;;;1.90;;
48241;SDS011;34041;51.812;4.622;2023-04-24T10:30:37;4.88;;;2.33;;
48241;SDS011;34041;51.812;4.622;2023-04-24T10:33:42;9.02;;;1.70;;
48241;SDS011;34041;51.812;4.622;2023-04-24T10:36:44;8.20;;;3.05;;
48241;SDS011;34041;51.812;4.622;2023-04-24T10:39:47;7.45;;;2.05;;
48241;SDS011;34041;51.812;4.622;2023-04-24T10:42:49;5.90;;;2.25;;
48241;SDS011;34041;51.812;4.622;2023-04-24T10:46:01;4.60;;;1.75;;
48241;SDS011;34041;51.812;4.622;2023-04-24T10:49:06;4.78;;;1.95;;
48241;SDS011;34041;51.812;4.622;2023-04-24T10:52:09;6.03;;;2.33;;
48241;SDS011;34041;51.812;4.622;2023-04-24T10:55:09;4.85;;;2.13;;
48241;SDS011;34041;51.812;4.622;2023-04-24T10:58:09;4.15;;;1.30;;
48241;SDS011;34041;51.812;4.622;2023-04-24T11:01:23;2.97;;;1.75;;
48241;SDS011;34041;51.812;4.622;2023-04-24T11:04:33;4.38;;;1.65;;
48241;SDS011;34041;51.812;4.622;2023-04-24T11:17:00;5.60;;;1.75;;
48241;SDS011;34041;51.812;4.622;2023-04-24T11:20:01;4.15;;;2.17;;
48241;SDS011;34041;51.812;4.622;2023-04-24T11:23:03;4.35;;;1.45;;
48241;SDS011;34041;51.812;4.622;2023-04-24T11:26:10;2.50;;;1.00;;
48241;SDS011;34041;51.812;4.622;2023-04-24T11:29:11;5.15;;;2.67;;
48241;SDS011;34041;51.812;4.622;2023-04-24T11:35:16;4.45;;;1.25;;
48241;SDS011;34041;51.812;4.622;2023-04-24T11:38:17;3.47;;;1.50;;
48241;SDS011;34041;51.812;4.622;2023-04-24T11:41:18;6.88;;;2.00;;
48241;SDS011;34041;51.812;4.622;2023-04-24T11:44:18;4.15;;;1.80;;
48241;SDS011;34041;51.812;4.622;2023-04-24T11:47:21;3.50;;;1.17;;
48241;SDS011;34041;51.812;4.622;2023-04-24T11:50:27;2.65;;;1.30;;
48241;SDS011;34041;51.812;4.622;2023-04-24T11:53:28;4.47;;;1.70;;
48241;SDS011;34041;51.812;4.622;2023-04-24T11:56:30;5.45;;;1.83;;
48241;SDS011;34041;51.812;4.622;2023-04-24T11:59:34;4.32;;;2.00;;
48241;SDS011;34041;51.812;4.622;2023-04-24T12:02:35;4.13;;;1.60;;
48241;SDS011;34041;51.812;4.622;2023-04-24T12:05:35;3.80;;;1.67;;
48241;SDS011;34041;51.812;4.622;2023-04-24T12:08:36;5.60;;;1.65;;
48241;SDS011;34041;51.812;4.622;2023-04-24T12:11:36;4.45;;;1.50;;
48241;SDS011;34041;51.812;4.622;2023-04-24T12:14:49;4.47;;;1.43;;
48241;SDS011;34041;51.812;4.622;2023-04-24T12:17:51;4.28;;;1.38;;
48241;SDS011;34041;51.812;4.622;2023-04-24T12:20:51;6.13;;;1.90;;
48241;SDS011;34041;51.812;4.622;2023-04-24T12:23:54;5.03;;;1.55;;
48241;SDS011;34041;51.812;4.622;2023-04-24T12:26:54;2.60;;;1.80;;
48241;SDS011;34041;51.812;4.622;2023-04-24T12:29:58;3.15;;;1.20;;
48241;SDS011;34041;51.812;4.622;2023-04-24T12:32:59;2.35;;;1.00;;
48241;SDS011;34041;51.812;4.622;2023-04-24T12:36:00;3.95;;;1.40;;
48241;SDS011;34041;51.812;4.622;2023-04-24T12:39:00;3.90;;;1.88;;
48241;SDS011;34041;51.812;4.622;2023-04-24T12:42:01;2.67;;;1.00;;
48241;SDS011;34041;51.812;4.622;2023-04-24T12:45:02;5.28;;;1.95;;
48241;SDS011;34041;51.812;4.622;2023-04-24T12:48:03;6.55;;;2.13;;
48241;SDS011;34041;51.812;4.622;2023-04-24T12:51:03;4.18;;;1.70;;
48241;SDS011;34041;51.812;4.622;2023-04-24T12:54:04;4.57;;;1.50;;
48241;SDS011;34041;51.812;4.622;2023-04-24T12:57:04;6.85;;;1.40;;
48241;SDS011;34041;51.812;4.622;2023-04-24T13:00:05;5.73;;;1.53;;
48241;SDS011;34041;51.812;4.622;2023-04-24T13:03:05;2.60;;;0.85;;
48241;SDS011;34041;51.812;4.622;2023-04-24T13:06:06;3.53;;;1.27;;
48241;SDS011;34041;51.812;4.622;2023-04-24T13:09:06;5.35;;;1.50;;
48241;SDS011;34041;51.812;4.622;2023-04-24T13:12:07;12.88;;;3.58;;
48241;SDS011;34041;51.812;4.622;2023-04-24T13:15:07;7.13;;;2.60;;
48241;SDS011;34041;51.812;4.622;2023-04-24T13:18:08;6.47;;;1.65;;
48241;SDS011;34041;51.812;4.622;2023-04-24T13:21:08;10.03;;;2.00;;
48241;SDS011;34041;51.812;4.622;2023-04-24T13:24:08;6.50;;;2.38;;
48241;SDS011;34041;51.812;4.622;2023-04-24T13:27:08;6.38;;;2.17;;
48241;SDS011;34041;51.812;4.622;2023-04-24T13:30:10;7.88;;;2.65;;
48241;SDS011;34041;51.812;4.622;2023-04-24T13:33:11;7.03;;;2.13;;
48241;SDS011;34041;51.812;4.622;2023-04-24T13:36:11;10.87;;;3.07;;
48241;SDS011;34041;51.812;4.622;2023-04-24T13:39:11;5.57;;;2.13;;
48241;SDS011;34041;51.812;4.622;2023-04-24T13:42:11;7.78;;;2.55;;
48241;SDS011;34041;51.812;4.622;2023-04-24T13:45:12;6.07;;;2.08;;
48241;SDS011;34041;51.812;4.622;2023-04-24T13:48:13;3.95;;;1.90;;
48241;SDS011;34041;51.812;4.622;2023-04-24T13:51:15;7.07;;;2.35;;
48241;SDS011;34041;51.812;4.622;2023-04-24T13:54:15;5.00;;;2.13;;
48241;SDS011;34041;51.812;4.622;2023-04-24T13:57:16;7.35;;;3.33;;
48241;SDS011;34041;51.812;4.622;2023-04-24T14:00:16;9.50;;;2.50;;
48241;SDS011;34041;51.812;4.622;2023-04-24T14:03:17;6.10;;;2.35;;
48241;SDS011;34041;51.812;4.622;2023-04-24T14:06:18;8.68;;;2.20;;
48241;SDS011;34041;51.812;4.622;2023-04-24T14:09:18;8.43;;;3.35;;
48241;SDS011;34041;51.812;4.622;2023-04-24T14:12:19;6.30;;;2.03;;
48241;SDS011;34041;51.812;4.622;2023-04-24T14:15:19;7.57;;;2.38;;
48241;SDS011;34041;51.812;4.622;2023-04-24T14:18:20;5.20;;;2.70;;
48241;SDS011;34041;51.812;4.622;2023-04-24T14:21:20;5.68;;;2.33;;
48241;SDS011;34041;51.812;4.622;2023-04-24T14:24:20;7.07;;;2.90;;
48241;SDS011;34041;51.812;4.622;2023-04-24T14:27:20;6.73;;;2.20;;
48241;SDS011;34041;51.812;4.622;2023-04-24T14:30:21;7.10;;;2.15;;
48241;SDS011;34041;51.812;4.622;2023-04-24T14:33:21;10.10;;;3.33;;
48241;SDS011;34041;51.812;4.622;2023-04-24T14:36:21;10.85;;;3.10;;
48241;SDS011;34041;51.812;4.622;2023-04-24T14:39:21;9.03;;;3.30;;
48241;SDS011;34041;51.812;4.622;2023-04-24T14:42:22;10.23;;;3.73;;
48241;SDS011;34041;51.812;4.622;2023-04-24T14:45:22;9.67;;;3.03;;
48241;SDS011;34041;51.812;4.622;2023-04-24T14:48:22;9.93;;;2.73;;
48241;SDS011;34041;51.812;4.622;2023-04-24T14:51:23;10.82;;;3.78;;
48241;SDS011;34041;51.812;4.622;2023-04-24T14:54:23;10.40;;;3.50;;
48241;SDS011;34041;51.812;4.622;2023-04-24T14:57:23;9.02;;;3.05;;
48241;SDS011;34041;51.812;4.622;2023-04-24T15:00:24;13.75;;;3.35;;
48241;SDS011;34041;51.812;4.622;2023-04-24T15:03:24;12.80;;;3.85;;
48241;SDS011;34041;51.812;4.622;2023-04-24T15:06:26;8.77;;;3.55;;
48241;SDS011;34041;51.812;4.622;2023-04-24T15:09:26;9.97;;;2.80;;
48241;SDS011;34041;51.812;4.622;2023-04-24T15:12:27;5.18;;;2.15;;
48241;SDS011;34041;51.812;4.622;2023-04-24T15:15:28;7.65;;;2.60;;
48241;SDS011;34041;51.812;4.622;2023-04-24T15:18:28;8.43;;;3.17;;
48241;SDS011;34041;51.812;4.622;2023-04-24T15:21:29;8.80;;;3.00;;
48241;SDS011;34041;51.812;4.622;2023-04-24T15:24:29;7.17;;;2.67;;
48241;SDS011;34041;51.812;4.622;2023-04-24T15:27:38;8.13;;;2.60;;
48241;SDS011;34041;51.812;4.622;2023-04-24T15:30:39;14.32;;;3.15;;
48241;SDS011;34041;51.812;4.622;2023-04-24T15:33:39;9.27;;;3.20;;
48241;SDS011;34041;51.812;4.622;2023-04-24T15:36:39;8.53;;;3.37;;
48241;SDS011;34041;51.812;4.622;2023-04-24T15:39:40;7.43;;;2.70;;
48241;SDS011;34041;51.812;4.622;2023-04-24T15:42:40;9.67;;;2.73;;
48241;SDS011;34041;51.812;4.622;2023-04-24T15:45:40;10.10;;;3.17;;
48241;SDS011;34041;51.812;4.622;2023-04-24T15:48:43;10.55;;;3.88;;
48241;SDS011;34041;51.812;4.622;2023-04-24T15:51:44;9.45;;;3.03;;
48241;SDS011;34041;51.812;4.622;2023-04-24T15:54:44;12.03;;;3.13;;
48241;SDS011;34041;51.812;4.622;2023-04-24T15:57:44;6.80;;;2.50;;
48241;SDS011;34041;51.812;4.622;2023-04-24T16:00:45;10.75;;;3.72;;
48241;SDS011;34041;51.812;4.622;2023-04-24T16:03:45;10.35;;;3.60;;
48241;SDS011;34041;51.812;4.622;2023-04-24T16:06:45;9.97;;;3.23;;
48241;SDS011;34041;51.812;4.622;2023-04-24T16:09:46;10.13;;;3.97;;
48241;SDS011;34041;51.812;4.622;2023-04-24T16:12:46;10.30;;;4.15;;
48241;SDS011;34041;51.812;4.622;2023-04-24T16:15:46;9.38;;;4.05;;
48241;SDS011;34041;51.812;4.622;2023-04-24T16:18:47;16.05;;;4.15;;
48241;SDS011;34041;51.812;4.622;2023-04-24T16:21:48;10.40;;;4.07;;
48241;SDS011;34041;51.812;4.622;2023-04-24T16:24:49;11.85;;;3.83;;
48241;SDS011;34041;51.812;4.622;2023-04-24T16:27:49;6.28;;;3.25;;
48241;SDS011;34041;51.812;4.622;2023-04-24T16:30:51;12.13;;;3.72;;
48241;SDS011;34041;51.812;4.622;2023-04-24T16:33:51;10.93;;;4.40;;
48241;SDS011;34041;51.812;4.622;2023-04-24T16:36:52;9.77;;;3.30;;
48241;SDS011;34041;51.812;4.622;2023-04-24T16:39:52;13.38;;;4.53;;
48241;SDS011;34041;51.812;4.622;2023-04-24T16:42:53;8.70;;;3.70;;
48241;SDS011;34041;51.812;4.622;2023-04-24T16:45:54;12.77;;;4.55;;
48241;SDS011;34041;51.812;4.622;2023-04-24T16:48:54;15.13;;;4.85;;
48241;SDS011;34041;51.812;4.622;2023-04-24T16:51:54;13.43;;;4.88;;
48241;SDS011;34041;51.812;4.622;2023-04-24T16:54:55;8.30;;;3.87;;
48241;SDS011;34041;51.812;4.622;2023-04-24T16:57:55;9.17;;;3.50;;
48241;SDS011;34041;51.812;4.622;2023-04-24T17:00:55;10.77;;;4.18;;
48241;SDS011;34041;51.812;4.622;2023-04-24T17:03:56;8.00;;;3.35;;
48241;SDS011;34041;51.812;4.622;2023-04-24T17:06:56;9.20;;;4.40;;
48241;SDS011;34041;51.812;4.622;2023-04-24T17:09:56;13.80;;;5.43;;
48241;SDS011;34041;51.812;4.622;2023-04-24T17:12:57;7.83;;;3.50;;
48241;SDS011;34041;51.812;4.622;2023-04-24T17:15:58;9.95;;;3.40;;
48241;SDS011;34041;51.812;4.622;2023-04-24T17:18:59;14.53;;;4.43;;
48241;SDS011;34041;51.812;4.622;2023-04-24T17:21:59;13.60;;;3.30;;
48241;SDS011;34041;51.812;4.622;2023-04-24T17:24:59;15.27;;;4.60;;
48241;SDS011;34041;51.812;4.622;2023-04-24T17:28:00;6.38;;;2.95;;
48241;SDS011;34041;51.812;4.622;2023-04-24T17:31:00;11.13;;;4.18;;
48241;SDS011;34041;51.812;4.622;2023-04-24T17:34:00;10.80;;;4.13;;
48241;SDS011;34041;51.812;4.622;2023-04-24T17:37:00;18.03;;;4.07;;
48241;SDS011;34041;51.812;4.622;2023-04-24T17:40:01;16.55;;;4.97;;
48241;SDS011;34041;51.812;4.622;2023-04-24T17:43:01;15.13;;;5.75;;
48241;SDS011;34041;51.812;4.622;2023-04-24T17:46:01;17.83;;;5.70;;
48241;SDS011;34041;51.812;4.622;2023-04-24T17:49:02;16.73;;;5.40;;
48241;SDS011;34041;51.812;4.622;2023-04-24T17:52:02;22.42;;;6.15;;
48241;SDS011;34041;51.812;4.622;2023-04-24T17:55:02;13.70;;;3.70;;
48241;SDS011;34041;51.812;4.622;2023-04-24T17:58:03;11.63;;;4.43;;
48241;SDS011;34041;51.812;4.622;2023-04-24T18:01:03;17.02;;;4.80;;
48241;SDS011;34041;51.812;4.622;2023-04-24T18:04:04;13.48;;;4.25;;
48241;SDS011;34041;51.812;4.622;2023-04-24T18:07:04;17.02;;;6.07;;
48241;SDS011;34041;51.812;4.622;2023-04-24T18:10:05;13.27;;;4.55;;
48241;SDS011;34041;51.812;4.622;2023-04-24T18:13:05;24.30;;;5.32;;
48241;SDS011;34041;51.812;4.622;2023-04-24T18:16:06;17.15;;;5.82;;
48241;SDS011;34041;51.812;4.622;2023-04-24T18:19:06;14.18;;;4.68;;
48241;SDS011;34041;51.812;4.622;2023-04-24T18:22:06;19.23;;;4.73;;